Time;durP1;ratioP1;P1;durP2;ratioP2;P2;SDS_P1;SDS_P2;PMS_P1;PMS_P2;Temp;Humidity;BMP_temperature;BMP_pressure;BME280_temperature;BME280_humidity;BME280_pressure;Samples;Min_cycle;Max_cycle;Signal;HPM_P1;HPM_P2
2021/04/21 00:01:31;;;;;;;1.45;0.40;;;;;;;21.78;nan;101210.53;5054508;28;20347;-59
2021/04/21 00:03:58;;;;;;;3.13;0.55;;;;;;;21.81;nan;101204.69;5054440;28;20021;-59
2021/04/21 00:06:24;;;;;;;1.02;0.43;;;;;;;21.82;nan;101207.25;5053953;28;20481;-59
2021/04/21 00:08:50;;;;;;;1.58;0.45;;;;;;;21.84;nan;101198.88;5054293;28;20025;-59
2021/04/21 00:11:17;;;;;;;0.82;0.30;;;;;;;21.88;nan;101197.44;5054117;28;20028;-59
2021/04/21 00:13:44;;;;;;;3.33;0.80;;;;;;;21.86;nan;101197.66;5054262;28;20025;-59
2021/04/21 00:16:14;;;;;;;1.65;0.45;;;;;;;21.91;nan;101189.72;5036148;28;20052;-59
2021/04/21 00:18:43;;;;;;;2.88;0.57;;;;;;;21.90;nan;101188.00;5054106;28;20028;-59
2021/04/21 00:21:09;;;;;;;1.17;0.52;;;;;;;21.93;nan;101182.16;5053974;28;20107;-59
2021/04/21 00:23:37;;;;;;;1.73;0.40;;;;;;;21.92;nan;101180.47;5053899;28;20163;-59
2021/04/21 00:26:08;;;;;;;1.48;0.43;;;;;;;21.93;nan;101182.16;5053862;28;20029;-60
2021/04/21 00:28:34;;;;;;;2.72;0.57;;;;;;;21.89;nan;101166.31;5053813;28;20047;-60
2021/04/21 00:31:04;;;;;;;1.67;0.40;;;;;;;21.95;nan;101167.44;5053993;28;20027;-59
2021/04/21 00:33:31;;;;;;;1.27;0.55;;;;;;;21.96;nan;101169.13;5053716;28;20025;-60
2021/04/21 00:35:57;;;;;;;2.20;0.80;;;;;;;21.96;nan;101163.66;5036009;28;20376;-59
2021/04/21 00:38:23;;;;;;;2.97;0.45;;;;;;;21.93;nan;101163.00;5035676;28;20395;-59
2021/04/21 00:41:16;;;;;;;2.60;0.80;;;;;;;21.95;nan;101156.47;5053706;28;20505;-59
2021/04/21 00:43:54;;;;;;;1.70;0.40;;;;;;;21.96;nan;101152.72;5053546;28;20581;-59
2021/04/21 00:46:22;;;;;;;3.45;0.60;;;;;;;21.96;nan;101152.72;5053234;28;20057;-60
2021/04/21 00:49:12;;;;;;;4.10;0.52;;;;;;;21.96;nan;101136.28;5053274;28;20468;-59
2021/04/21 00:51:41;;;;;;;2.15;0.50;;;;;;;21.95;nan;101129.97;5053545;28;20036;-59
2021/04/21 00:54:18;;;;;;;2.22;0.70;;;;;;;21.95;nan;101134.59;5053444;28;20036;-59
2021/04/21 00:56:58;;;;;;;1.30;0.50;;;;;;;21.96;nan;101128.06;5053347;28;20049;-60
2021/04/21 01:00:01;;;;;;;2.70;0.50;;;;;;;21.96;nan;101119.84;5053192;28;20040;-59
2021/04/21 01:02:32;;;;;;;4.13;1.15;;;;;;;21.96;nan;101117.13;5053202;28;20035;-60
2021/04/21 01:04:59;;;;;;;2.17;0.40;;;;;;;21.97;nan;101116.94;5053037;28;20021;-59
2021/04/21 01:07:27;;;;;;;3.78;0.98;;;;;;;21.97;nan;101116.09;5052838;28;20025;-59
2021/04/21 01:09:56;;;;;;;2.22;0.60;;;;;;;21.97;nan;101114.19;5053268;28;20071;-59
2021/04/21 01:12:23;;;;;;;2.50;0.98;;;;;;;21.97;nan;101105.13;5052923;28;20024;-59
2021/04/21 01:14:52;;;;;;;1.42;0.40;;;;;;;21.96;nan;101092.50;5053072;28;20025;-59
2021/04/21 01:17:18;;;;;;;1.92;0.45;;;;;;;21.98;nan;101093.16;5052874;28;20052;-59
2021/04/21 01:19:58;;;;;;;3.13;0.65;;;;;;;21.99;nan;101092.94;5053086;28;20049;-60
2021/04/21 01:22:42;;;;;;;1.88;0.57;;;;;;;22.00;nan;101085.59;5052785;28;20021;-59
2021/04/21 01:25:10;;;;;;;2.35;0.68;;;;;;;21.99;nan;101086.63;5052640;28;20039;-59
2021/04/21 01:28:11;;;;;;;2.22;0.60;;;;;;;21.99;nan;101081.16;5052342;28;20052;-60
2021/04/21 01:30:41;;;;;;;4.20;0.70;;;;;;;21.98;nan;101073.97;5052834;28;20033;-59
2021/04/21 01:33:13;;;;;;;1.80;0.47;;;;;;;22.00;nan;101063.69;5053275;28;20033;-59
2021/04/21 01:35:43;;;;;;;1.98;0.73;;;;;;;22.00;nan;101063.69;5053074;28;20067;-59
2021/04/21 01:38:09;;;;;;;2.42;0.50;;;;;;;21.98;nan;101058.41;5052624;28;20027;-59
2021/04/21 01:40:39;;;;;;;4.97;1.15;;;;;;;21.98;nan;101050.19;5052745;28;20036;-59
2021/04/21 01:43:10;;;;;;;3.30;0.70;;;;;;;21.98;nan;101052.09;5052538;28;20032;-59
2021/04/21 01:45:37;;;;;;;2.47;0.60;;;;;;;21.98;nan;101041.13;5052287;28;20032;-60
2021/04/21 01:48:11;;;;;;;1.23;0.50;;;;;;;21.97;nan;101037.53;5052476;28;20028;-60
2021/04/21 01:50:36;;;;;;;2.95;0.80;;;;;;;21.99;nan;101031.88;5052652;28;20384;-60
2021/04/21 01:53:38;;;;;;;2.88;0.60;;;;;;;22.00;nan;101031.69;5052493;28;20525;-59
2021/04/21 01:56:24;;;;;;;2.15;0.90;;;;;;;21.99;nan;101020.94;5048829;28;20048;-59
2021/04/21 01:59:26;;;;;;;1.05;0.30;;;;;;;21.97;nan;101020.28;5052489;28;20033;-59
2021/04/21 02:02:06;;;;;;;2.38;0.52;;;;;;;21.98;nan;101019.22;5052526;28;20026;-59
2021/04/21 02:05:01;;;;;;;3.95;0.77;;;;;;;21.99;nan;101009.97;5032290;28;20116;-59
2021/04/21 02:07:57;;;;;;;1.63;0.50;;;;;;;21.96;nan;101011.22;5032139;28;20568;-59
2021/04/21 02:10:41;;;;;;;1.35;0.60;;;;;;;21.98;nan;100997.34;5014514;28;20079;-59
2021/04/21 02:13:20;;;;;;;2.47;0.63;;;;;;;21.92;nan;100988.84;5032326;28;20029;-60
2021/04/21 02:16:08;;;;;;;2.17;0.45;;;;;;;21.95;nan;100987.63;5032498;28;20021;-60
2021/04/21 02:18:52;;;;;;;2.38;0.50;;;;;;;21.98;nan;100983.66;5032345;28;20022;-60
2021/04/21 02:21:47;;;;;;;1.17;0.28;;;;;;;21.96;nan;100983.84;5032544;28;20112;-60
2021/04/21 02:24:12;;;;;;;5.32;1.00;;;;;;;21.95;nan;100986.78;5032151;28;20462;-60
2021/04/21 02:26:44;;;;;;;4.17;0.73;;;;;;;21.96;nan;100977.53;5032082;28;20056;-60
2021/04/21 02:29:20;;;;;;;2.63;0.50;;;;;;;21.94;nan;100969.50;5048118;28;20799;-60
2021/04/21 02:32:06;;;;;;;2.05;0.60;;;;;;;21.95;nan;100973.09;5052263;28;20350;-60
2021/04/21 02:34:40;;;;;;;3.83;0.73;;;;;;;21.95;nan;100970.34;5052075;28;20036;-60
2021/04/21 02:37:36;;;;;;;2.65;0.70;;;;;;;21.94;nan;100964.03;5033848;28;20078;-59
2021/04/21 02:40:07;;;;;;;3.47;0.70;;;;;;;21.95;nan;100959.41;5052191;28;20036;-60
2021/04/21 02:42:50;;;;;;;2.83;0.80;;;;;;;21.95;nan;100953.94;5055859;28;20586;-60
2021/04/21 02:45:36;;;;;;;0.85;0.32;;;;;;;21.93;nan;100951.38;5055405;28;20025;-60
2021/04/21 02:48:14;;;;;;;3.17;0.75;;;;;;;21.92;nan;100947.81;5037928;28;20120;-60
2021/04/21 02:50:49;;;;;;;1.63;0.63;;;;;;;21.93;nan;100944.03;5055907;28;20032;-60
2021/04/21 02:53:18;;;;;;;1.73;0.38;;;;;;;21.91;nan;100849.47;5055719;28;20063;-60
2021/04/21 02:56:02;;;;;;;0.75;0.30;;;;;;;21.91;nan;100842.09;5055359;28;20087;-60
2021/04/21 02:58:58;;;;;;;2.03;0.43;;;;;;;21.90;nan;100831.34;5037654;28;20487;-60
2021/04/21 03:01:32;;;;;;;1.05;0.40;;;;;;;21.95;nan;100973.09;5055452;28;20469;-60
2021/04/21 03:04:16;;;;;;;1.15;0.43;;;;;;;21.88;nan;100916.38;5055702;28;20151;-60
2021/04/21 03:06:48;;;;;;;2.22;0.38;;;;;;;21.90;nan;100919.78;5055293;28;20075;-60
2021/04/21 03:09:27;;;;;;;2.58;0.75;;;;;;;21.90;nan;100913.47;5055297;28;20056;-60
2021/04/21 03:11:56;;;;;;;3.13;0.50;;;;;;;21.90;nan;100897.88;5055489;28;20048;-60
2021/04/21 03:14:24;;;;;;;2.10;0.50;;;;;;;21.89;nan;100878.91;5055223;28;20376;-60
2021/04/21 03:16:55;;;;;;;1.85;0.60;;;;;;;21.90;nan;100875.97;5055332;28;20017;-60
2021/04/21 03:19:42;;;;;;;0.68;0.38;;;;;;;21.88;nan;100869.84;5055065;28;20074;-60
2021/04/21 03:22:14;;;;;;;6.07;0.90;;;;;;;21.88;nan;100864.38;5055236;28;20065;-60
2021/04/21 03:24:46;;;;;;;2.63;0.50;;;;;;;21.92;nan;100862.94;5055199;28;20020;-60
2021/04/21 03:27:13;;;;;;;2.28;0.60;;;;;;;21.91;nan;100850.31;5052880;28;20031;-61
2021/04/21 03:29:47;;;;;;;1.70;0.40;;;;;;;21.87;nan;100854.47;5054273;28;20113;-61
2021/04/21 03:32:23;;;;;;;1.58;0.50;;;;;;;21.85;nan;100850.25;5055006;28;20017;-61
2021/04/21 03:34:50;;;;;;;1.05;0.30;;;;;;;21.82;nan;100846.00;5055018;28;20053;-61
2021/04/21 03:37:36;;;;;;;1.58;0.60;;;;;;;21.81;nan;100837.97;5054590;28;20028;-61
2021/04/21 03:40:02;;;;;;;0.77;0.22;;;;;;;21.81;nan;100833.34;5054771;28;20032;-61
2021/04/21 03:42:27;;;;;;;1.20;0.38;;;;;;;21.81;nan;100837.97;5054664;28;20106;-61
2021/04/21 03:44:53;;;;;;;1.10;0.43;;;;;;;21.77;nan;100826.56;5054745;28;20049;-61
2021/04/21 03:47:19;;;;;;;1.50;0.45;;;;;;;21.81;nan;100835.22;5036414;28;20373;-62
2021/04/21 03:49:46;;;;;;;3.75;0.95;;;;;;;21.81;nan;100827.88;5054795;28;20028;-61
2021/04/21 03:52:13;;;;;;;2.10;0.60;;;;;;;21.79;nan;100823.63;5054156;28;20025;-61
2021/04/21 03:54:40;;;;;;;2.08;0.47;;;;;;;21.79;nan;100812.69;5054417;28;20061;-60
2021/04/21 03:57:08;;;;;;;2.75;0.60;;;;;;;21.76;nan;100808.47;5054401;28;20033;-60
2021/04/21 03:59:36;;;;;;;1.73;0.38;;;;;;;21.79;nan;100812.69;5054413;28;20017;-61
2021/04/21 04:02:06;;;;;;;6.25;0.65;;;;;;;22.58;nan;100801.63;5054449;28;20102;-61
2021/04/21 04:04:36;;;;;;;0.45;0.30;;;;;;;23.36;nan;100798.50;5036522;28;20029;-61
2021/04/21 04:07:07;;;;;;;0.45;0.13;;;;;;;23.68;nan;100802.44;5053790;28;20029;-61
2021/04/21 04:09:35;;;;;;;0.68;0.30;;;;;;;23.18;nan;100797.34;5054015;28;20464;-61
2021/04/21 04:12:04;;;;;;;0.50;0.20;;;;;;;23.11;nan;100791.84;5054332;28;20099;-61
2021/04/21 04:14:33;;;;;;;2.33;0.43;;;;;;;23.08;nan;100781.28;5054192;28;20031;-60
2021/04/21 04:17:00;;;;;;;0.82;0.20;;;;;;;23.30;nan;100784.75;5054089;28;20071;-60
2021/04/21 04:19:27;;;;;;;0.73;0.30;;;;;;;23.22;nan;100782.19;5054343;28;20028;-60
2021/04/21 04:22:17;;;;;;;0.63;0.30;;;;;;;23.19;nan;100772.47;5054198;28;20025;-60
2021/04/21 04:24:52;;;;;;;0.57;0.20;;;;;;;23.20;nan;100770.59;5054135;28;20074;-60
2021/04/21 04:27:21;;;;;;;;;;;;;;;23.15;nan;100768.44;5053949;28;20029;-61
2021/04/21 04:29:47;;;;;;;0.55;0.20;;;;;;;23.27;nan;100763.22;5053963;28;19909;-60
2021/04/21 04:32:19;;;;;;;1.65;0.10;;;;;;;23.14;nan;100760.41;5053826;28;20037;-61
2021/04/21 04:34:49;;;;;;;0.20;0.10;;;;;;;23.18;nan;100753.47;5053944;28;20067;-61
2021/04/21 04:37:17;;;;;;;1.52;0.30;;;;;;;23.27;nan;100757.72;5053641;28;20016;-65
2021/04/21 04:39:43;;;;;;;0.70;0.20;;;;;;;23.30;nan;100749.09;5053752;28;20040;-67
2021/04/21 04:42:09;;;;;;;0.75;0.38;;;;;;;23.22;nan;100739.16;5053666;28;20029;-68
2021/04/21 04:44:36;;;;;;;0.35;0.10;;;;;;;23.25;nan;100740.63;5053906;28;20025;-67
2021/04/21 04:47:04;;;;;;;0.57;0.25;;;;;;;23.24;nan;100741.69;5053063;28;20469;-70
2021/04/21 04:49:36;;;;;;;0.60;0.20;;;;;;;23.29;nan;100734.53;5035570;28;20238;-71
2021/04/21 04:52:05;;;;;;;0.30;0.20;;;;;;;23.40;nan;100738.56;5035633;28;20432;-69
2021/04/21 04:54:33;;;;;;;0.28;0.08;;;;;;;23.38;nan;100732.47;5053200;28;20031;-71
2021/04/21 04:56:58;;;;;;;1.63;0.20;;;;;;;23.37;nan;100730.78;5053401;28;20025;-70
2021/04/21 04:59:27;;;;;;;0.95;0.30;;;;;;;23.34;nan;100720.19;5053198;28;20040;-70
2021/04/21 05:02:00;;;;;;;0.85;0.15;;;;;;;23.38;nan;100716.00;5053474;28;20024;-70
2021/04/21 05:04:37;;;;;;;1.38;0.52;;;;;;;23.28;nan;100710.91;5052503;28;20017;-70
2021/04/21 05:07:05;;;;;;;0.57;0.10;;;;;;;23.24;nan;100714.28;5052882;28;20025;-69
2021/04/21 05:09:38;;;;;;;0.85;0.10;;;;;;;23.36;nan;100701.66;5053028;28;20481;-70
2021/04/21 05:12:11;;;;;;;1.08;0.20;;;;;;;23.39;nan;100695.75;5051152;28;20020;-71
2021/04/21 05:14:38;;;;;;;0.33;0.20;;;;;;;23.49;nan;100690.66;5053110;28;20029;-67
2021/04/21 05:17:32;;;;;;;0.60;0.38;;;;;;;23.45;nan;100683.91;5051508;28;20023;-66
2021/04/21 05:20:16;;;;;;;1.90;0.80;;;;;;;23.49;nan;100674.22;5048989;28;20115;-63
2021/04/21 05:23:03;;;;;;;1.52;0.77;;;;;;;23.64;nan;100672.16;5054547;28;20078;-59
2021/04/21 05:26:02;;;;;;;1.35;0.70;;;;;;;23.79;nan;100660.13;5050858;28;20033;-62
2021/04/21 05:28:30;;;;;;;4.65;1.52;;;;;;;23.65;nan;100660.13;5044601;28;20102;-62
2021/04/21 05:31:29;;;;;;;5.05;2.38;;;;;;;23.76;nan;100655.91;5051960;28;20100;-61
2021/04/21 05:34:13;;;;;;;11.55;8.68;;;;;;;24.07;nan;100660.75;5051474;28;20024;-67
2021/04/21 05:37:03;;;;;;;14.63;12.77;;;;;;;24.00;nan;100654.41;5052809;28;20024;-61
2021/04/21 05:39:28;;;;;;;9.77;8.68;;;;;;;23.90;nan;100637.53;5052521;28;20040;-60
2021/04/21 05:42:15;;;;;;;7.73;6.67;;;;;;;23.99;nan;100641.72;5052151;28;20017;-60
2021/04/21 05:45:11;;;;;;;7.05;4.90;;;;;;;24.00;nan;100638.75;5056136;28;20270;-59
2021/04/21 05:48:01;;;;;;;4.93;4.07;;;;;;;24.03;nan;100632.03;5045643;28;20426;-59
2021/04/21 05:50:40;;;;;;;3.00;2.80;;;;;;;24.00;nan;100611.31;5052488;28;20498;-60
2021/04/21 05:53:37;;;;;;;2.47;2.20;;;;;;;23.98;nan;100612.56;5053380;28;20245;-59
2021/04/21 05:56:25;;;;;;;2.20;2.00;;;;;;;23.73;nan;100619.81;5047419;28;20539;-59
2021/04/21 05:59:09;;;;;;;2.00;1.80;;;;;;;23.69;nan;100609.25;5046542;28;20063;-59
2021/04/21 06:01:36;;;;;;;2.58;1.33;;;;;;;23.72;nan;100601.66;5053191;28;20028;-60
2021/04/21 06:04:01;;;;;;;1.92;1.30;;;;;;;23.69;nan;100598.28;5055485;28;20029;-60
2021/04/21 06:06:27;;;;;;;1.77;0.95;;;;;;;23.74;nan;100583.91;5051987;28;20051;-60
2021/04/21 06:08:53;;;;;;;1.08;0.98;;;;;;;23.79;nan;100594.25;5052244;28;20058;-60
2021/04/21 06:11:21;;;;;;;1.15;0.90;;;;;;;23.66;nan;100593.19;5051562;28;20062;-60
2021/04/21 06:13:50;;;;;;;3.25;1.00;;;;;;;23.88;nan;100580.09;5055219;28;20123;-61
2021/04/21 06:16:18;;;;;;;1.77;1.10;;;;;;;23.77;nan;100583.47;5058588;28;20488;-60
2021/04/21 06:18:49;;;;;;;0.80;0.68;;;;;;;23.73;nan;100586.88;5058796;28;20460;-61
2021/04/21 06:21:16;;;;;;;1.35;0.80;;;;;;;23.83;nan;100584.50;5049280;28;20025;-61
2021/04/21 06:23:42;;;;;;;0.75;0.57;;;;;;;23.69;nan;100570.84;5054416;28;20381;-62
2021/04/21 06:26:07;;;;;;;0.60;0.55;;;;;;;23.69;nan;100575.47;5055691;28;20024;-63
2021/04/21 06:28:33;;;;;;;2.30;0.90;;;;;;;23.62;nan;100564.50;5055180;28;20036;-63
2021/04/21 06:31:12;;;;;;;1.30;0.70;;;;;;;23.63;nan;100555.19;5055300;28;20040;-63
2021/04/21 06:33:43;;;;;;;0.55;0.55;;;;;;;23.52;nan;100544.88;5056233;28;20028;-62
2021/04/21 06:36:10;;;;;;;0.60;0.50;;;;;;;23.60;nan;100543.81;5053594;28;20040;-63
2021/04/21 06:38:37;;;;;;;1.52;0.70;;;;;;;23.60;nan;100536.44;5037420;28;20029;-63
2021/04/21 06:41:02;;;;;;;0.35;0.30;;;;;;;23.64;nan;100542.31;5021712;28;20381;-62
2021/04/21 06:43:33;;;;;;;0.70;0.40;;;;;;;23.72;nan;100541.28;5035905;28;20036;-63
2021/04/21 06:45:59;;;;;;;0.60;0.50;;;;;;;23.63;nan;100527.75;5036062;28;20071;-62
2021/04/21 06:48:37;;;;;;;0.80;0.30;;;;;;;23.59;nan;100526.50;5036402;28;20260;-63
2021/04/21 06:51:10;;;;;;;2.55;0.50;;;;;;;23.56;nan;100521.44;5055706;28;20418;-63
2021/04/21 06:53:36;;;;;;;0.98;0.30;;;;;;;23.61;nan;100518.91;5055762;28;20046;-63
2021/04/21 06:56:01;;;;;;;1.05;0.40;;;;;;;23.74;nan;100522.69;5055334;28;20045;-65
2021/04/21 06:58:29;;;;;;;1.52;0.22;;;;;;;23.67;nan;100507.06;5055541;28;20025;-63
2021/04/21 07:00:54;;;;;;;0.70;0.30;;;;;;;23.64;nan;100507.50;5058205;28;20104;-60
2021/04/21 07:03:21;;;;;;;0.93;0.30;;;;;;;23.68;nan;100497.81;5046078;28;20108;-63
2021/04/21 07:05:47;;;;;;;0.95;0.40;;;;;;;23.72;nan;100497.38;5066130;28;20031;-61
2021/04/21 07:08:20;;;;;;;7.45;1.05;;;;;;;23.68;nan;100486.81;5051852;28;20028;-60
2021/04/21 07:10:50;;;;;;;1.38;0.20;;;;;;;23.76;nan;100488.47;5052679;28;20468;-61
2021/04/21 07:13:30;;;;;;;0.88;0.52;;;;;;;23.74;nan;100503.47;5054624;28;20404;-60
2021/04/21 07:16:00;;;;;;;0.38;0.30;;;;;;;23.70;nan;100484.69;5037497;28;20013;-60
2021/04/21 07:18:31;;;;;;;1.27;0.32;;;;;;;23.82;nan;100486.75;5055080;28;20043;-60
2021/04/21 07:20:59;;;;;;;0.77;0.30;;;;;;;23.87;nan;100478.75;5055277;28;20071;-60
2021/04/21 07:23:26;;;;;;;1.17;0.20;;;;;;;23.85;nan;100478.09;5055005;28;20029;-60
2021/04/21 07:25:52;;;;;;;0.70;0.32;;;;;;;23.82;nan;100464.81;5054508;28;20479;-58
2021/04/21 07:28:20;;;;;;;0.47;0.22;;;;;;;23.83;nan;100466.47;5045676;28;20065;-59
2021/04/21 07:30:46;;;;;;;0.68;0.30;;;;;;;23.68;nan;100464.88;5042586;28;20083;-59
2021/04/21 07:33:12;;;;;;;0.80;0.10;;;;;;;23.76;nan;100447.31;5054879;28;20100;-59
2021/04/21 07:35:37;;;;;;;0.20;0.20;;;;;;;23.71;nan;100449.88;5054982;28;20556;-59
2021/04/21 07:38:16;;;;;;;0.50;0.30;;;;;;;23.68;nan;100451.16;5054916;28;20025;-59
2021/04/21 07:40:42;;;;;;;0.50;0.30;;;;;;;23.76;nan;100447.31;5055511;28;20025;-59
2021/04/21 07:43:19;;;;;;;1.10;0.30;;;;;;;23.70;nan;100451.78;5054767;28;20712;-59
2021/04/21 07:45:48;;;;;;;0.60;0.20;;;;;;;23.65;nan;100443.31;5054762;28;20029;-59
2021/04/21 07:48:32;;;;;;;1.05;0.40;;;;;;;23.76;nan;100436.31;5054421;28;20086;-61
2021/04/21 07:51:16;;;;;;;0.40;0.10;;;;;;;23.64;nan;100430.66;5054663;28;20051;-59
2021/04/21 07:53:53;;;;;;;0.28;0.20;;;;;;;23.73;nan;100423.03;5036767;28;20051;-59
2021/04/21 07:56:20;;;;;;;0.95;0.20;;;;;;;23.63;nan;100419.91;5061425;23;20049;-60
2021/04/21 07:58:46;;;;;;;1.17;0.20;;;;;;;23.69;nan;100406.19;5034721;28;20061;-60
2021/04/21 08:01:11;;;;;;;0.50;0.10;;;;;;;23.82;nan;100415.41;5034275;28;20554;-60
2021/04/21 08:03:37;;;;;;;0.93;0.20;;;;;;;23.82;nan;100409.91;5034511;28;20029;-59
2021/04/21 08:06:04;;;;;;;0.55;0.10;;;;;;;23.68;nan;100415.47;5041190;28;20028;-60
2021/04/21 08:08:36;;;;;;;0.82;0.30;;;;;;;23.87;nan;100410.13;5054099;28;20051;-60
2021/04/21 08:11:04;;;;;;;1.08;0.25;;;;;;;23.83;nan;100400.59;5053916;28;20078;-61
2021/04/21 08:13:43;;;;;;;0.82;0.30;;;;;;;23.82;nan;100398.94;5054198;28;20115;-61
2021/04/21 08:16:26;;;;;;;1.75;0.50;;;;;;;23.89;nan;100399.75;5052926;28;20036;-61
2021/04/21 08:18:53;;;;;;;1.05;0.60;;;;;;;23.83;nan;100393.22;5054173;28;20036;-62
2021/04/21 08:21:35;;;;;;;1.48;0.60;;;;;;;23.82;nan;100393.44;5054276;28;20457;-61
2021/04/21 08:24:14;;;;;;;1.10;0.93;;;;;;;23.85;nan;100393.00;5052807;28;20029;-61
2021/04/21 08:26:54;;;;;;;1.08;1.00;;;;;;;23.68;nan;100388.03;5054046;28;20053;-62
2021/04/21 08:29:19;;;;;;;1.30;1.15;;;;;;;23.81;nan;100389.00;5053609;28;20039;-64
2021/04/21 08:31:51;;;;;;;2.05;1.50;;;;;;;23.74;nan;100374.50;5054010;28;20111;-61
2021/04/21 08:34:18;;;;;;;1.77;1.08;;;;;;;23.78;nan;100382.06;5053696;28;20025;-62
2021/04/21 08:36:43;;;;;;;1.10;1.00;;;;;;;23.84;nan;100383.06;5052608;28;20368;-61
2021/04/21 08:39:09;;;;;;;1.73;1.10;;;;;;;23.69;nan;100362.25;5052451;28;20025;-63
2021/04/21 08:41:38;;;;;;;1.08;0.70;;;;;;;23.72;nan;100360.16;5053757;28;20115;-61
2021/04/21 08:44:04;;;;;;;0.93;0.70;;;;;;;23.75;nan;100354.22;5053762;28;20094;-62
2021/04/21 08:46:30;;;;;;;2.10;0.85;;;;;;;23.79;nan;100355.44;5053506;28;20076;-62
2021/04/21 08:48:57;;;;;;;0.82;0.70;;;;;;;23.69;nan;100351.28;5051838;28;20028;-61
2021/04/21 08:51:24;;;;;;;1.17;0.60;;;;;;;23.72;nan;100354.66;5051934;28;20032;-61
2021/04/21 08:54:02;;;;;;;1.10;0.68;;;;;;;23.72;nan;100351.91;5053583;28;20521;-61
2021/04/21 08:56:31;;;;;;;1.00;0.60;;;;;;;23.84;nan;100336.41;5053102;28;20479;-62
2021/04/21 08:58:57;;;;;;;1.17;0.55;;;;;;;23.78;nan;100337.31;5053295;28;20043;-61
2021/04/21 09:01:22;;;;;;;0.50;0.30;;;;;;;23.88;nan;100337.69;5053199;28;20021;-61
2021/04/21 09:03:50;;;;;;;0.80;0.75;;;;;;;23.75;nan;100327.59;5053411;28;20056;-61
2021/04/21 09:06:18;;;;;;;0.45;0.45;;;;;;;23.79;nan;100334.34;5053026;28;20021;-63
2021/04/21 09:08:48;;;;;;;0.70;0.40;;;;;;;23.79;nan;100326.09;5053133;28;20403;-61
2021/04/21 09:11:14;;;;;;;0.63;0.30;;;;;;;23.91;nan;100331.75;5052879;28;20017;-62
2021/04/21 09:13:40;;;;;;;0.65;0.63;;;;;;;23.75;nan;100330.34;5053243;28;20029;-63
2021/04/21 09:16:05;;;;;;;1.23;0.80;;;;;;;23.87;nan;100330.50;5053063;28;20394;-62
2021/04/21 09:18:33;;;;;;;1.83;0.85;;;;;;;23.99;nan;100329.56;5051645;28;20031;-61
2021/04/21 09:21:00;;;;;;;1.23;0.60;;;;;;;23.87;nan;100325.03;5053043;28;20027;-61
2021/04/21 09:23:34;;;;;;;1.58;0.77;;;;;;;23.91;nan;100320.75;5052863;28;20025;-61
2021/04/21 09:25:59;;;;;;;;;;;;;;;23.91;nan;100321.59;5053342;28;20031;-60
2021/04/21 09:28:24;;;;;;;1.58;0.90;;;;;;;23.87;nan;100311.28;5052541;28;20314;-62
2021/04/21 09:30:56;;;;;;;0.75;0.50;;;;;;;23.76;nan;100301.84;5052664;28;20460;-64
2021/04/21 09:33:24;;;;;;;0.40;0.40;;;;;;;23.96;nan;100307.22;5051324;28;20104;-60
2021/04/21 09:35:50;;;;;;;0.80;0.50;;;;;;;23.78;nan;100299.72;5052850;28;20029;-61
2021/04/21 09:38:24;;;;;;;1.27;0.77;;;;;;;23.90;nan;100297.13;5052536;28;20066;-61
2021/04/21 09:40:52;;;;;;;;;;;;;;;23.90;nan;100292.47;5053207;28;20036;-60
2021/04/21 09:43:22;;;;;;;2.20;0.90;;;;;;;23.93;nan;100302.16;5052442;28;19915;-61
2021/04/21 09:45:54;;;;;;;0.50;0.45;;;;;;;23.86;nan;100295.88;5052629;28;20118;-60
2021/04/21 09:48:32;;;;;;;2.05;0.43;;;;;;;23.84;nan;100287.00;5052248;28;20035;-62
2021/04/21 09:50:59;;;;;;;0.80;0.50;;;;;;;23.90;nan;100297.13;5052060;28;20495;-61
2021/04/21 09:53:33;;;;;;;1.70;0.60;;;;;;;23.94;nan;100288.22;5052406;28;20036;-61
2021/04/21 09:56:03;;;;;;;0.85;0.40;;;;;;;23.97;nan;100286.94;5052443;28;20064;-61
2021/04/21 09:58:30;;;;;;;0.68;0.30;;;;;;;23.83;nan;100279.84;5052348;28;20503;-61
2021/04/21 10:00:56;;;;;;;1.55;0.50;;;;;;;23.73;nan;100274.84;5052447;28;20029;-61
2021/04/21 10:03:21;;;;;;;0.40;0.30;;;;;;;23.77;nan;100273.34;5052270;28;20048;-61
2021/04/21 10:05:46;;;;;;;0.73;0.30;;;;;;;23.88;nan;100277.28;5052422;28;20052;-61
2021/04/21 10:08:24;;;;;;;0.50;0.40;;;;;;;23.90;nan;100272.41;5052309;28;20033;-60
2021/04/21 10:11:01;;;;;;;0.85;0.32;;;;;;;23.87;nan;100265.47;5052428;28;20035;-61
2021/04/21 10:13:39;;;;;;;0.60;0.50;;;;;;;23.95;nan;100256.13;5052481;28;20025;-61
2021/04/21 10:16:06;;;;;;;0.10;0.10;;;;;;;23.77;nan;100258.78;5052368;28;20014;-61
2021/04/21 10:18:31;;;;;;;0.38;0.28;;;;;;;23.85;nan;100247.50;5052279;28;20035;-62
2021/04/21 10:20:57;;;;;;;0.98;0.20;;;;;;;23.86;nan;100241.84;5052334;28;20107;-61
2021/04/21 10:23:23;;;;;;;0.95;0.22;;;;;;;23.96;nan;100246.81;5052137;28;20063;-62
2021/04/21 10:25:49;;;;;;;0.30;0.10;;;;;;;23.83;nan;100252.38;5052243;28;20108;-61
2021/04/21 10:28:15;;;;;;;0.77;0.43;;;;;;;23.82;nan;100231.50;5052052;28;20100;-61
2021/04/21 10:30:40;;;;;;;0.63;0.20;;;;;;;23.91;nan;100227.44;5052282;28;20107;-61
2021/04/21 10:33:08;;;;;;;1.92;0.52;;;;;;;23.93;nan;100231.63;5052121;28;20108;-63
2021/04/21 10:35:33;;;;;;;0.63;0.20;;;;;;;23.95;nan;100220.44;5052367;28;20472;-61
2021/04/21 10:37:59;;;;;;;3.35;0.40;;;;;;;24.00;nan;100217.84;5052221;28;20055;-63
2021/04/21 10:40:29;;;;;;;0.63;0.20;;;;;;;24.05;nan;100223.53;5051936;28;20029;-61
2021/04/21 10:43:02;;;;;;;0.68;0.15;;;;;;;23.93;nan;100220.66;5052055;28;20023;-65
2021/04/21 10:45:28;;;;;;;0.32;0.17;;;;;;;23.82;nan;100213.13;5051921;28;20025;-61
2021/04/21 10:47:55;;;;;;;0.10;0.10;;;;;;;23.73;nan;100208.16;5052061;28;20135;-61
2021/04/21 10:50:42;;;;;;;1.30;0.10;;;;;;;23.82;nan;100198.56;5051867;28;20035;-60
2021/04/21 10:53:37;;;;;;;3.40;0.57;;;;;;;24.07;nan;100207.66;5051860;28;20028;-62
2021/04/21 10:56:21;;;;;;;0.52;0.10;;;;;;;24.02;nan;100191.03;5047751;28;20052;-60
2021/04/21 10:58:55;;;;;;;1.58;0.20;;;;;;;23.93;nan;100195.09;5051975;28;20382;-61
2021/04/21 11:01:32;;;;;;;0.30;0.10;;;;;;;24.06;nan;100188.66;5051037;28;20108;-60
2021/04/21 11:03:59;;;;;;;0.57;0.03;;;;;;;23.95;nan;100185.56;5055699;28;20079;-63
2021/04/21 11:06:40;;;;;;;0.40;0.10;;;;;;;23.92;nan;100176.94;5054085;28;20471;-62
2021/04/21 11:09:06;;;;;;;0.28;0.10;;;;;;;23.99;nan;100180.47;5054119;28;20028;-62
2021/04/21 11:11:36;;;;;;;1.77;0.70;;;;;;;24.22;nan;100177.94;5055409;28;20056;-62
2021/04/21 11:14:02;;;;;;;0.63;0.30;;;;;;;24.05;nan;100168.59;5055470;28;20064;-62
2021/04/21 11:16:30;;;;;;;10.48;8.75;;;;;;;24.10;nan;100174.25;5054028;28;20025;-60
2021/04/21 11:19:18;;;;;;;28.70;22.23;;;;;;;24.01;nan;100161.88;5055571;28;20025;-59
2021/04/21 11:21:45;;;;;;;18.27;12.70;;;;;;;23.95;nan;100162.78;5055241;28;20028;-61
2021/04/21 11:24:11;;;;;;;12.13;8.98;;;;;;;24.04;nan;100164.19;5055127;28;20187;-61
2021/04/21 11:26:45;;;;;;;7.95;6.70;;;;;;;24.07;nan;100166.47;5054885;28;20028;-59
2021/04/21 11:29:20;;;;;;;7.63;6.28;;;;;;;24.05;nan;100165.88;5054891;28;20488;-60
2021/04/21 11:31:46;;;;;;;4.35;3.90;;;;;;;23.98;nan;100156.81;5054977;28;20025;-61
2021/04/21 11:34:34;;;;;;;3.78;3.38;;;;;;;23.98;nan;100154.09;5054899;28;20495;-59
2021/04/21 11:37:00;;;;;;;4.00;2.95;;;;;;;23.96;nan;100153.47;5054987;28;20100;-60
2021/04/21 11:39:40;;;;;;;3.22;2.55;;;;;;;24.01;nan;100156.38;5053486;28;20025;-60
2021/04/21 11:42:18;;;;;;;2.72;2.30;;;;;;;23.93;nan;100162.16;5055168;28;20017;-60
2021/04/21 11:44:49;;;;;;;2.70;1.90;;;;;;;23.99;nan;100153.00;5054939;28;20052;-60
2021/04/21 11:48:03;;;;;;;3.22;1.70;;;;;;;23.92;nan;100139.34;5054588;28;20105;-60
2021/04/21 11:50:33;;;;;;;2.17;1.45;;;;;;;23.94;nan;100139.13;5052095;28;20044;-61
2021/04/21 11:53:08;;;;;;;1.38;1.10;;;;;;;23.98;nan;100134.88;5052294;28;20033;-64
2021/04/21 11:55:35;;;;;;;2.78;1.13;;;;;;;24.05;nan;100132.91;5051918;28;20048;-62
2021/04/21 11:58:02;;;;;;;1.55;1.02;;;;;;;23.94;nan;100144.63;5035570;28;20507;-60
2021/04/21 12:00:38;;;;;;;1.67;0.90;;;;;;;24.04;nan;100139.47;5051870;28;20791;-61
2021/04/21 12:03:13;;;;;;;1.33;0.90;;;;;;;23.95;nan;100130.66;5034776;28;20062;-62
2021/04/21 12:05:39;;;;;;;0.65;0.65;;;;;;;23.93;nan;100127.31;5051733;28;20171;-60
2021/04/21 12:08:06;;;;;;;0.93;0.65;;;;;;;23.93;nan;100126.47;5052039;28;20028;-61